Time;durP1;ratioP1;P1;durP2;ratioP2;P2;SDS_P1;SDS_P2;PMS_P1;PMS_P2;Temp;Humidity;BMP_temperature;BMP_pressure;BME280_temperature;BME280_humidity;BME280_pressure;Samples;Min_cycle;Max_cycle;Signal;HPM_P1;HPM_P2
2023/01/22 00:00:10;;;;;;;49.75;26.27;;;;;;;-0.11;100.00;102347.44;4998063;28;20056;-80
2023/01/22 00:02:36;;;;;;;46.20;25.55;;;;;;;-0.14;100.00;102346.69;4999437;28;20054;-80
2023/01/22 00:05:04;;;;;;;47.25;25.45;;;;;;;-0.15;100.00;102339.88;4997255;28;20100;-80
2023/01/22 00:07:32;;;;;;;49.92;25.73;;;;;;;-0.02;100.00;102341.19;4996671;28;20065;-80
2023/01/22 00:09:59;;;;;;;45.33;24.20;;;;;;;-0.09;100.00;102335.38;4994388;28;20092;-78
2023/01/22 00:12:26;;;;;;;42.97;24.33;;;;;;;-0.10;100.00;102338.84;4993056;28;20038;-80
2023/01/22 00:14:52;;;;;;;45.67;25.15;;;;;;;-0.08;100.00;102341.38;4996256;28;20114;-78
2023/01/22 00:17:19;;;;;;;46.33;24.45;;;;;;;-0.03;100.00;102344.66;4995865;28;20046;-79
2023/01/22 00:19:46;;;;;;;43.17;24.00;;;;;;;-0.08;100.00;102341.38;4995951;28;20110;-78
2023/01/22 00:22:12;;;;;;;44.95;23.73;;;;;;;-0.07;100.00;102343.91;4988454;28;20050;-79
2023/01/22 00:24:40;;;;;;;43.10;23.77;;;;;;;-0.02;100.00;102343.78;4995971;28;20141;-80
2023/01/22 00:27:07;;;;;;;41.95;23.13;;;;;;;0.07;100.00;102340.88;4991914;28;20043;-79
2023/01/22 00:29:34;;;;;;;40.83;22.17;;;;;;;0.13;100.00;102351.00;4993166;28;20515;-80
2023/01/22 00:32:03;;;;;;;33.15;16.88;;;;;;;0.28;100.00;102331.66;4988072;28;20058;-80
2023/01/22 00:34:30;;;;;;;38.35;21.80;;;;;;;0.32;99.58;102339.25;4993694;28;20520;-81
2023/01/22 00:36:56;;;;;;;37.40;20.65;;;;;;;0.29;99.00;102336.75;4993736;28;20068;-77
2023/01/22 00:39:23;;;;;;;38.35;20.88;;;;;;;0.31;99.12;102324.69;4989863;28;20072;-80
2023/01/22 00:41:51;;;;;;;39.47;22.83;;;;;;;0.34;98.06;102323.75;4996443;28;20050;-78
2023/01/22 00:44:18;;;;;;;38.63;21.60;;;;;;;0.33;97.96;102322.06;4985491;28;20066;-79
2023/01/22 00:46:44;;;;;;;35.72;21.20;;;;;;;0.31;97.53;102324.69;4992073;28;20042;-79
2023/01/22 00:49:12;;;;;;;39.83;21.73;;;;;;;0.29;97.25;102321.31;4993679;28;20050;-79
2023/01/22 00:51:38;;;;;;;34.30;20.50;;;;;;;0.28;97.27;102304.19;4995499;28;20137;-80
2023/01/22 00:54:07;;;;;;;35.60;20.08;;;;;;;0.28;97.01;102308.50;4989343;28;20050;-80
2023/01/22 00:56:34;;;;;;;37.45;21.95;;;;;;;0.21;97.14;102310.41;5010812;28;20169;-80
2023/01/22 00:59:08;;;;;;;37.83;20.05;;;;;;;0.18;97.11;102300.22;5006672;28;20524;-80
2023/01/22 01:01:35;;;;;;;41.38;21.25;;;;;;;0.17;96.94;102293.38;4999271;28;20094;-80
2023/01/22 01:04:02;;;;;;;36.72;20.58;;;;;;;0.23;96.41;102290.63;4997867;28;20054;-80
2023/01/22 01:06:28;;;;;;;34.30;20.23;;;;;;;0.24;96.81;102282.00;4993719;28;20089;-80
2023/01/22 01:08:55;;;;;;;34.78;19.90;;;;;;;0.23;96.15;102285.47;4997495;28;20074;-79
2023/01/22 01:11:24;;;;;;;35.05;20.40;;;;;;;0.23;96.02;102289.78;5000838;28;20050;-82
2023/01/22 01:13:52;;;;;;;36.15;20.02;;;;;;;0.24;96.02;102305.16;4999418;28;20118;-77
2023/01/22 01:16:22;;;;;;;38.38;21.40;;;;;;;0.16;95.84;102288.28;5000816;28;20496;-80
2023/01/22 01:18:49;;;;;;;34.67;19.83;;;;;;;0.12;95.92;102300.41;4998481;28;20089;-80
2023/01/22 01:21:18;;;;;;;36.20;20.10;;;;;;;0.11;96.34;102301.28;5000155;28;20074;-78
2023/01/22 01:23:45;;;;;;;33.70;20.15;;;;;;;0.13;96.55;102301.25;5000765;28;20105;-80
2023/01/22 01:26:13;;;;;;;36.42;20.67;;;;;;;0.03;96.32;102292.97;5000342;28;20099;-79
2023/01/22 01:28:41;;;;;;;36.75;22.23;;;;;;;0.00;96.82;102283.63;5000357;28;20134;-81
2023/01/22 01:31:11;;;;;;;36.13;20.67;;;;;;;0.09;96.79;102297.94;4999688;28;20378;-79
2023/01/22 01:33:39;;;;;;;35.88;21.35;;;;;;;0.09;97.20;102303.06;4993333;28;20358;-78
2023/01/22 01:36:08;;;;;;;38.33;23.25;;;;;;;-0.02;97.76;102284.56;4983452;28;20054;-79
2023/01/22 01:38:34;;;;;;;41.25;23.38;;;;;;;-0.03;97.82;102288.03;4988880;28;20519;-81
2023/01/22 01:41:02;;;;;;;40.50;23.65;;;;;;;-0.09;98.39;102280.50;4995940;28;20128;-78
2023/01/22 01:43:29;;;;;;;42.15;23.35;;;;;;;-0.06;98.85;102290.72;4993277;28;20078;-81
2023/01/22 01:45:57;;;;;;;44.85;25.05;;;;;;;-0.10;99.09;102292.53;4994332;28;20525;-79
2023/01/22 01:48:30;;;;;;;48.42;27.05;;;;;;;-0.13;99.53;102296.94;4996547;28;20046;-78
2023/01/22 01:51:04;;;;;;;52.17;29.25;;;;;;;-0.12;100.00;102296.03;4996440;28;20054;-79
2023/01/22 01:53:32;;;;;;;52.05;29.20;;;;;;;-0.16;100.00;102282.44;4992002;28;20065;-81
2023/01/22 01:56:01;;;;;;;49.92;27.70;;;;;;;-0.12;100.00;102289.16;4992744;28;20133;-79
2023/01/22 01:58:32;;;;;;;47.88;26.63;;;;;;;-0.15;100.00;102298.72;4996993;28;20074;-78
2023/01/22 02:01:03;;;;;;;44.40;23.92;;;;;;;-0.18;100.00;102288.50;4988720;28;20299;-75
2023/01/22 02:03:30;;;;;;;49.65;24.25;;;;;;;-0.20;100.00;102280.00;4991917;28;20046;-78
2023/01/22 02:05:57;;;;;;;42.63;25.48;;;;;;;-0.15;100.00;102283.25;4992373;28;20089;-79
2023/01/22 02:08:25;;;;;;;45.13;25.60;;;;;;;-0.19;100.00;102273.97;4992553;28;20492;-78
2023/01/22 02:10:53;;;;;;;47.22;25.50;;;;;;;-0.15;100.00;102278.13;4988762;28;20053;-79
2023/01/22 02:13:25;;;;;;;47.03;25.25;;;;;;;-0.17;100.00;102279.91;4992429;28;20133;-78
2023/01/22 02:15:51;;;;;;;45.30;24.90;;;;;;;-0.23;100.00;102264.66;4989458;28;20038;-77
2023/01/22 02:18:18;;;;;;;45.17;25.13;;;;;;;-0.15;100.00;102278.97;4992220;28;20392;-78
2023/01/22 02:20:53;;;;;;;43.13;23.75;;;;;;;-0.10;100.00;102277.09;4992062;28;20086;-79
2023/01/22 02:23:20;;;;;;;44.15;24.77;;;;;;;-0.08;100.00;102274.47;5039900;23;20079;-80
2023/01/22 02:25:47;;;;;;;43.78;24.20;;;;;;;-0.11;100.00;102269.41;5064313;28;20049;-79
2023/01/22 02:28:14;;;;;;;44.95;24.63;;;;;;;-0.08;100.00;102274.47;5064763;28;20079;-79
2023/01/22 02:30:41;;;;;;;41.97;24.33;;;;;;;-0.11;100.00;102251.41;5065430;28;20056;-78
2023/01/22 02:33:08;;;;;;;43.55;24.20;;;;;;;-0.12;100.00;102267.72;5059624;28;20105;-79
2023/01/22 02:35:35;;;;;;;42.38;24.77;;;;;;;-0.13;100.00;102263.47;5045073;28;20049;-79
2023/01/22 02:38:04;;;;;;;44.60;24.35;;;;;;;-0.13;100.00;102268.63;5049743;28;20065;-78
2023/01/22 02:40:31;;;;;;;41.30;24.30;;;;;;;-0.11;100.00;102269.41;5054320;28;20046;-79
2023/01/22 02:42:57;;;;;;;41.47;23.40;;;;;;;-0.12;100.00;102278.88;5054894;28;20050;-79
2023/01/22 02:45:24;;;;;;;42.88;24.75;;;;;;;-0.16;100.00;102269.56;5049467;28;20061;-79
2023/01/22 02:47:51;;;;;;;42.33;23.50;;;;;;;-0.14;100.00;102265.22;5045417;28;20087;-79
2023/01/22 02:50:18;;;;;;;46.58;25.67;;;;;;;-0.18;100.00;102271.34;5045984;28;20507;-79
2023/01/22 02:52:44;;;;;;;41.28;24.42;;;;;;;-0.21;100.00;102268.00;5045212;28;20105;-79
2023/01/22 02:55:12;;;;;;;45.65;24.25;;;;;;;-0.24;100.00;102274.09;5045452;28;20099;-79
2023/01/22 02:57:39;;;;;;;42.85;24.70;;;;;;;-0.27;100.00;102263.91;5044956;28;20060;-80
2023/01/22 03:00:07;;;;;;;47.28;24.90;;;;;;;-0.22;100.00;102274.88;5045346;28;20081;-79
2023/01/22 03:02:34;;;;;;;46.38;27.05;;;;;;;-0.23;100.00;102270.63;5047811;28;20041;-78
2023/01/22 03:05:03;;;;;;;44.33;25.52;;;;;;;-0.26;100.00;102272.47;5049266;28;20049;-80
2023/01/22 03:07:40;;;;;;;43.90;24.20;;;;;;;-0.31;100.00;102264.03;5044432;28;20060;-78
2023/01/22 03:10:10;;;;;;;45.97;25.65;;;;;;;-0.23;100.00;102268.06;5035859;28;20053;-79
2023/01/22 03:23:34;;;;;;;45.55;24.13;;;;;;;-0.27;100.00;102252.75;5042775;28;20060;-80
2023/01/22 03:26:02;;;;;;;44.90;25.48;;;;;;;-0.24;100.00;102253.50;5045438;28;20096;-79
2023/01/22 03:28:30;;;;;;;39.35;22.90;;;;;;;-0.19;100.00;102245.66;5047542;28;20101;-80
2023/01/22 03:30:57;;;;;;;46.65;25.02;;;;;;;-0.17;100.00;102251.59;5048936;28;20046;-80
2023/01/22 03:33:23;;;;;;;46.83;25.65;;;;;;;-0.23;100.00;102242.34;5045447;28;20568;-80
2023/01/22 03:35:50;;;;;;;44.70;24.98;;;;;;;-0.20;100.00;102239.66;5045996;28;20061;-82
2023/01/22 03:38:17;;;;;;;43.10;24.40;;;;;;;-0.19;100.00;102235.38;5044759;28;20065;-80
2023/01/22 03:40:43;;;;;;;46.00;25.33;;;;;;;-0.16;100.00;102230.97;5045127;28;20124;-81
2023/01/22 03:43:10;;;;;;;43.15;25.33;;;;;;;-0.19;100.00;102235.38;5045420;28;20080;-80
2023/01/22 03:45:38;;;;;;;44.10;25.40;;;;;;;-0.23;100.00;102228.63;5045423;28;20037;-81
2023/01/22 03:48:05;;;;;;;47.25;25.58;;;;;;;-0.23;100.00;102238.91;5036955;28;20045;-81
2023/01/22 03:50:31;;;;;;;41.85;23.92;;;;;;;-0.16;100.00;102246.41;5046133;28;20054;-80
2023/01/22 03:52:58;;;;;;;44.08;24.88;;;;;;;-0.21;100.00;102242.28;5046683;28;20078;-81
2023/01/22 03:55:25;;;;;;;43.22;24.50;;;;;;;-0.21;100.00;102243.13;5046034;28;20160;-82
2023/01/22 03:57:51;;;;;;;41.55;24.30;;;;;;;-0.22;100.00;102240.59;5046659;28;20077;-81
2023/01/22 04:00:19;;;;;;;43.50;22.83;;;;;;;-0.24;100.00;102239.81;5047929;28;20118;-81
2023/01/22 04:02:48;;;;;;;41.83;23.08;;;;;;;-0.21;100.00;102244.84;5048018;28;20092;-81
2023/01/22 04:05:16;;;;;;;43.90;25.38;;;;;;;-0.23;100.00;102241.50;5048295;28;20057;-81
2023/01/22 04:07:43;;;;;;;46.03;24.65;;;;;;;-0.19;100.00;102253.38;5046803;28;20124;-79
2023/01/22 04:10:10;;;;;;;42.58;23.67;;;;;;;-0.18;100.00;102244.78;5043772;28;20147;-80
2023/01/22 04:12:37;;;;;;;43.40;24.98;;;;;;;-0.21;100.00;102242.28;5043841;28;20057;-79
2023/01/22 04:15:05;;;;;;;45.65;25.75;;;;;;;-0.19;100.00;102248.22;5042874;28;20168;-80
2023/01/22 04:17:31;;;;;;;43.20;23.77;;;;;;;-0.23;100.00;102244.06;5045796;28;20101;-80
2023/01/22 04:19:59;;;;;;;43.10;23.15;;;;;;;-0.19;100.00;102238.78;5045903;28;20081;-80
2023/01/22 04:22:26;;;;;;;41.58;24.42;;;;;;;-0.19;100.00;102237.94;5044976;28;20045;-81
2023/01/22 04:24:53;;;;;;;41.53;25.13;;;;;;;-0.21;100.00;102237.16;5045277;28;20077;-80
2023/01/22 04:27:19;;;;;;;45.22;24.63;;;;;;;-0.25;100.00;102236.41;5044800;28;20053;-80
2023/01/22 04:29:46;;;;;;;43.05;25.70;;;;;;;-0.22;100.00;102240.59;5047324;28;20073;-80
2023/01/22 04:32:12;;;;;;;43.30;25.80;;;;;;;-0.23;100.00;102238.91;5046813;28;20084;-80
2023/01/22 04:34:39;;;;;;;45.47;23.45;;;;;;;-0.25;100.00;102233.81;5046846;28;20084;-80
2023/01/22 04:37:07;;;;;;;42.33;24.90;;;;;;;-0.24;100.00;102232.09;5046810;28;20053;-80
2023/01/22 04:39:33;;;;;;;37.67;22.55;;;;;;;-0.27;100.00;102242.47;5044650;28;20120;-80
2023/01/22 04:42:00;;;;;;;41.05;23.27;;;;;;;-0.32;100.00;102240.03;5045440;28;20077;-81
2023/01/22 04:44:27;;;;;;;39.80;23.30;;;;;;;-0.27;100.00;102255.34;5043113;28;20140;-80
2023/01/22 04:46:53;;;;;;;42.17;23.67;;;;;;;-0.24;100.00;102248.38;5042892;28;20084;-80
2023/01/22 04:49:20;;;;;;;41.40;24.35;;;;;;;-0.27;100.00;102245.03;5044619;28;20080;-81
2023/01/22 04:51:46;;;;;;;44.50;24.92;;;;;;;-0.23;100.00;102242.34;5045008;28;20128;-80
2023/01/22 04:54:14;;;;;;;41.00;25.15;;;;;;;-0.23;100.00;102246.63;5044470;28;20483;-80
2023/01/22 04:56:41;;;;;;;43.08;24.88;;;;;;;-0.25;100.00;102245.84;5044178;28;20049;-81
2023/01/22 04:59:08;;;;;;;39.15;23.10;;;;;;;-0.26;100.00;102254.44;5043802;28;20077;-80
2023/01/22 05:01:35;;;;;;;41.25;25.00;;;;;;;-0.30;100.00;102242.56;5045326;28;20045;-80
2023/01/22 05:04:02;;;;;;;39.30;23.17;;;;;;;-0.31;100.00;102259.72;5045511;28;20049;-81
2023/01/22 05:06:30;;;;;;;40.17;24.08;;;;;;;-0.36;100.00;102247.00;5047677;28;20056;-80
2023/01/22 05:08:57;;;;;;;38.33;23.33;;;;;;;-0.31;100.00;102246.03;5041734;28;20125;-80
2023/01/22 05:11:26;;;;;;;40.25;23.65;;;;;;;-0.33;100.00;102246.06;5041408;28;20089;-80
2023/01/22 05:13:53;;;;;;;39.03;23.95;;;;;;;-0.30;100.00;102250.28;5041988;28;20119;-79
2023/01/22 05:16:19;;;;;;;40.65;23.33;;;;;;;-0.33;100.00;102251.22;5042377;28;20693;-80
2023/01/22 05:18:46;;;;;;;39.22;23.55;;;;;;;-0.34;100.00;102242.66;5041688;28;20101;-79
2023/01/22 05:21:13;;;;;;;35.20;21.88;;;;;;;-0.28;100.00;102249.34;5042269;28;20053;-80
2023/01/22 05:23:39;;;;;;;38.67;23.17;;;;;;;-0.33;100.00;102243.50;5041445;28;20537;-79
2023/01/22 05:26:06;;;;;;;37.70;23.35;;;;;;;-0.34;100.00;102252.94;5040440;28;20087;-80
2023/01/22 05:28:34;;;;;;;36.63;23.20;;;;;;;-0.37;100.00;102250.47;5042341;28;20061;-78
2023/01/22 05:31:00;;;;;;;37.85;21.08;;;;;;;-0.30;100.00;102247.72;5042954;28;20113;-79
2023/01/22 05:33:29;;;;;;;37.10;23.05;;;;;;;-0.30;100.00;102258.00;5043645;28;20077;-79
2023/01/22 05:35:56;;;;;;;39.88;23.05;;;;;;;-0.35;100.00;102256.41;5045556;28;20073;-80
2023/01/22 05:38:23;;;;;;;36.63;22.55;;;;;;;-0.36;100.00;102257.28;5045246;28;20050;-80
2023/01/22 05:40:50;;;;;;;36.45;21.23;;;;;;;-0.39;100.00;102254.81;5040919;28;20136;-79
2023/01/22 05:43:16;;;;;;;38.10;23.08;;;;;;;-0.39;100.00;102257.38;5041051;28;20543;-80
2023/01/22 05:45:44;;;;;;;39.53;23.05;;;;;;;-0.34;100.00;102252.09;5041760;28;20052;-80
2023/01/22 05:48:11;;;;;;;38.78;23.60;;;;;;;-0.36;100.00;102254.72;5040146;28;20105;-79
2023/01/22 05:50:39;;;;;;;34.50;22.02;;;;;;;-0.38;100.00;102250.50;5041198;28;20113;-80
2023/01/22 05:53:06;;;;;;;36.78;22.35;;;;;;;-0.35;100.00;102256.41;5043904;28;20392;-80
2023/01/22 05:55:34;;;;;;;37.15;23.35;;;;;;;-0.32;100.00;102254.63;5045864;28;20107;-80
2023/01/22 05:58:01;;;;;;;38.40;23.50;;;;;;;-0.30;100.00;102263.16;5043266;28;20054;-80
2023/01/22 06:00:28;;;;;;;39.28;23.27;;;;;;;-0.31;100.00;102266.59;5045956;28;20073;-80
2023/01/22 06:02:57;;;;;;;37.33;22.73;;;;;;;-0.30;100.00;102263.16;5047183;28;20091;-80
2023/01/22 06:05:24;;;;;;;35.22;22.27;;;;;;;-0.29;100.00;102267.41;5047417;28;20049;-80
2023/01/22 06:07:50;;;;;;;40.05;23.58;;;;;;;-0.33;100.00;102261.50;5046096;28;20108;-80
2023/01/22 06:10:17;;;;;;;37.47;23.50;;;;;;;-0.31;100.00;102261.47;5046454;28;20045;-81
2023/01/22 06:12:44;;;;;;;38.08;21.95;;;;;;;-0.22;100.00;102271.47;5042774;28;20475;-81
2023/01/22 06:15:12;;;;;;;35.83;22.58;;;;;;;-0.22;100.00;102266.31;5042613;28;20072;-81
2023/01/22 06:17:38;;;;;;;38.17;23.55;;;;;;;-0.25;100.00;102267.25;5041419;28;20128;-80
2023/01/22 06:20:09;;;;;;;36.65;21.92;;;;;;;-0.27;100.00;102265.63;5042466;28;20519;-80
2023/01/22 06:22:36;;;;;;;39.35;22.48;;;;;;;-0.26;100.00;102265.56;5039568;28;20081;-81
2023/01/22 06:25:02;;;;;;;38.35;23.02;;;;;;;-0.23;100.00;102269.78;5041132;28;20084;-81
2023/01/22 06:27:29;;;;;;;39.42;22.90;;;;;;;-0.25;100.00;102256.13;5042728;28;20060;-81
2023/01/22 06:29:55;;;;;;;36.47;22.75;;;;;;;-0.32;100.00;102259.78;5043722;28;20050;-82
2023/01/22 06:32:22;;;;;;;35.80;22.67;;;;;;;-0.28;100.00;102264.78;5044397;28;20069;-82
2023/01/22 06:34:49;;;;;;;36.33;21.23;;;;;;;-0.31;100.00;102256.31;5043840;28;20045;-82
2023/01/22 06:37:17;;;;;;;35.42;22.17;;;;;;;-0.25;100.00;102266.41;5043918;28;20088;-81
2023/01/22 06:39:43;;;;;;;36.72;22.77;;;;;;;-0.31;100.00;102266.59;5043564;28;20060;-80
2023/01/22 06:42:10;;;;;;;34.95;21.42;;;;;;;-0.32;100.00;102260.63;5044072;28;20049;-81
2023/01/22 06:44:36;;;;;;;34.50;21.65;;;;;;;-0.25;100.00;102276.72;5042576;28;20105;-81
2023/01/22 06:47:03;;;;;;;36.38;23.20;;;;;;;-0.28;100.00;102271.66;5043747;28;20594;-81
2023/01/22 06:49:30;;;;;;;36.90;23.27;;;;;;;-0.28;100.00;102271.66;5043488;28;20056;-81
2023/01/22 06:51:56;;;;;;;36.60;23.08;;;;;;;-0.27;100.00;102271.63;5046368;28;20141;-81
2023/01/22 06:54:24;;;;;;;37.40;23.23;;;;;;;-0.29;100.00;102264.81;5043649;28;20108;-80
2023/01/22 06:56:51;;;;;;;36.30;22.30;;;;;;;-0.26;100.00;102269.88;5044828;28;20057;-81
2023/01/22 06:59:17;;;;;;;37.70;22.60;;;;;;;-0.23;100.00;102274.94;5043475;28;20081;-81
2023/01/22 07:01:44;;;;;;;39.35;23.42;;;;;;;-0.29;100.00;102275.13;5044059;28;20564;-81
2023/01/22 07:04:11;;;;;;;39.10;23.38;;;;;;;-0.25;100.00;102276.72;5048528;28;20084;-80
2023/01/22 07:06:37;;;;;;;41.30;23.90;;;;;;;-0.25;100.00;102293.00;5047843;28;20057;-80
2023/01/22 07:09:04;;;;;;;42.35;23.75;;;;;;;-0.22;100.00;102287.75;5047961;28;20113;-79
2023/01/22 07:11:32;;;;;;;38.22;23.02;;;;;;;-0.21;100.00;102286.88;5048482;28;20107;-79
2023/01/22 07:13:58;;;;;;;39.50;23.58;;;;;;;-0.22;100.00;102286.91;5047993;28;20046;-80
2023/01/22 07:16:25;;;;;;;39.95;23.85;;;;;;;-0.20;100.00;102291.13;5049271;28;20053;-78
2023/01/22 07:18:52;;;;;;;35.30;21.83;;;;;;;-0.27;100.00;102291.34;5052800;28;20052;-81
2023/01/22 07:21:18;;;;;;;39.78;23.38;;;;;;;-0.27;100.00;102301.63;5048148;28;20045;-80
2023/01/22 07:23:45;;;;;;;38.55;23.27;;;;;;;-0.23;100.00;102290.38;5050291;28;20400;-80
2023/01/22 07:26:11;;;;;;;39.67;23.55;;;;;;;-0.18;100.00;102298.78;5050278;28;20080;-79
2023/01/22 07:28:40;;;;;;;36.72;22.08;;;;;;;-0.19;100.00;102312.53;5051080;28;20050;-81
2023/01/22 07:31:09;;;;;;;36.90;22.80;;;;;;;-0.17;100.00;102310.78;5029231;28;20049;-80
2023/01/22 07:33:36;;;;;;;37.00;22.98;;;;;;;-0.19;100.00;102307.41;5037715;28;20052;-79
2023/01/22 07:36:03;;;;;;;40.35;24.00;;;;;;;-0.22;100.00;102310.06;5048049;28;20049;-80
2023/01/22 07:38:30;;;;;;;35.30;21.83;;;;;;;-0.12;100.00;102308.91;5048456;28;20295;-78
2023/01/22 07:41:00;;;;;;;38.67;23.25;;;;;;;-0.13;100.00;102312.38;5047644;28;20128;-79
2023/01/22 07:43:27;;;;;;;36.15;21.65;;;;;;;-0.12;100.00;102326.91;5047051;28;20085;-81
2023/01/22 07:45:56;;;;;;;35.15;21.90;;;;;;;-0.10;100.00;102328.56;5047788;28;20072;-80
2023/01/22 07:48:23;;;;;;;34.22;21.70;;;;;;;-0.10;100.00;102328.56;5049673;28;20049;-80
2023/01/22 07:50:50;;;;;;;37.08;22.60;;;;;;;-0.10;100.00;102332.84;5046544;28;20084;-79
2023/01/22 07:53:17;;;;;;;34.75;22.58;;;;;;;-0.09;100.00;102335.38;5045178;28;20088;-79
2023/01/22 07:55:44;;;;;;;33.75;20.40;;;;;;;-0.06;100.00;102334.44;5046168;28;20073;-79
2023/01/22 07:58:12;;;;;;;33.05;20.30;;;;;;;-0.05;100.00;102339.56;5046590;28;20057;-78
2023/01/22 08:00:38;;;;;;;35.60;22.52;;;;;;;-0.06;100.00;102331.88;5045477;28;20048;-78
2023/01/22 08:03:09;;;;;;;33.15;21.00;;;;;;;-0.05;100.00;102321.53;5044575;28;20400;-79
2023/01/22 08:05:36;;;;;;;32.45;20.58;;;;;;;-0.01;100.00;102342.88;5045765;28;20080;-79
2023/01/22 08:08:02;;;;;;;35.72;21.40;;;;;;;0.01;100.00;102325.63;5045014;28;20076;-81
2023/01/22 08:10:29;;;;;;;32.70;20.83;;;;;;;0.03;100.00;102329.00;5045355;28;20057;-79
2023/01/22 08:12:56;;;;;;;32.20;20.15;;;;;;;0.05;100.00;102334.94;5045568;28;20133;-80
2023/01/22 08:15:22;;;;;;;31.95;20.95;;;;;;;0.09;100.00;102333.97;5044091;28;20456;-79
2023/01/22 08:17:50;;;;;;;33.80;20.83;;;;;;;0.01;100.00;102335.94;5045317;28;20105;-80
2023/01/22 08:20:18;;;;;;;31.15;19.48;;;;;;;0.10;100.00;102343.38;5045319;28;20105;-80
2023/01/22 08:22:48;;;;;;;34.25;21.63;;;;;;;0.10;100.00;102339.94;5045074;28;20084;-76
2023/01/22 08:25:15;;;;;;;31.70;20.40;;;;;;;0.11;100.00;102342.47;5044007;28;20069;-79
2023/01/22 08:27:41;;;;;;;33.83;21.15;;;;;;;0.13;100.00;102338.13;5044144;28;20045;-79
2023/01/22 08:30:11;;;;;;;32.15;20.23;;;;;;;0.13;100.00;102345.00;5043786;28;20080;-79
2023/01/22 08:32:40;;;;;;;31.83;19.52;;;;;;;0.13;100.00;102350.16;5044604;28;20422;-79
2023/01/22 08:35:07;;;;;;;29.88;18.88;;;;;;;0.16;100.00;102343.19;5043066;28;20083;-79
2023/01/22 08:37:35;;;;;;;28.73;19.05;;;;;;;0.14;100.00;102342.38;5044256;28;20089;-79
2023/01/22 08:40:01;;;;;;;30.23;19.20;;;;;;;0.19;100.00;102350.81;5044914;28;20129;-80
2023/01/22 08:42:28;;;;;;;29.65;19.48;;;;;;;0.22;100.00;102345.56;5044009;28;20475;-76
2023/01/22 08:44:57;;;;;;;29.40;18.90;;;;;;;0.19;100.00;102337.09;5043917;28;20136;-80
2023/01/22 08:47:24;;;;;;;31.17;19.83;;;;;;;0.14;100.00;102334.66;5047500;28;20080;-78
2023/01/22 08:49:51;;;;;;;28.27;19.15;;;;;;;0.14;100.00;102347.53;5047024;28;20080;-80
2023/01/22 08:52:20;;;;;;;31.35;20.52;;;;;;;0.18;100.00;102350.84;5040914;28;20077;-79
2023/01/22 08:54:48;;;;;;;29.55;19.27;;;;;;;0.19;100.00;102347.41;5263843;22;20108;-86
2023/01/22 08:57:15;;;;;;;31.38;18.65;;;;;;;0.25;100.00;102345.47;5057375;28;20148;-87
2023/01/22 08:59:43;;;;;;;29.63;18.65;;;;;;;0.23;100.00;102342.09;5056623;28;20049;-87
2023/01/22 09:02:11;;;;;;;27.73;18.17;;;;;;;0.09;100.00;102325.41;5056318;28;20052;-87
2023/01/22 09:04:38;;;;;;;29.80;19.98;;;;;;;0.18;100.00;102335.41;5038024;28;20589;-87
2023/01/22 09:07:05;;;;;;;28.05;17.55;;;;;;;0.05;100.00;102331.53;5037211;28;20045;-88
2023/01/22 09:09:31;;;;;;;29.42;18.70;;;;;;;0.12;100.00;102333.88;5038066;28;20069;-88
2023/01/22 09:12:00;;;;;;;28.02;18.75;;;;;;;0.20;100.00;102344.78;5036946;28;20052;-88
2023/01/22 09:14:26;;;;;;;27.58;18.23;;;;;;;0.29;100.00;102351.38;5036807;28;20072;-87
2023/01/22 09:16:53;;;;;;;28.08;18.73;;;;;;;0.08;100.00;102319.41;5037669;28;20053;-87
2023/01/22 09:19:20;;;;;;;32.33;18.67;;;;;;;0.15;100.00;102328.63;5036893;28;20111;-87
2023/01/22 09:21:51;;;;;;;26.40;17.25;;;;;;;0.29;100.00;102341.91;5039548;28;20053;-88
2023/01/22 09:24:18;;;;;;;28.80;18.30;;;;;;;0.26;100.00;102333.44;5038448;28;20423;-88
2023/01/22 09:26:45;;;;;;;26.85;18.48;;;;;;;0.18;100.00;102317.41;5036591;28;20045;-87
2023/01/22 09:29:13;;;;;;;28.05;18.15;;;;;;;0.19;100.00;102331.94;5038655;28;20045;-87
2023/01/22 09:31:40;;;;;;;27.85;18.10;;;;;;;0.31;100.00;102350.44;5043069;28;20049;-88
2023/01/22 09:34:07;;;;;;;28.25;19.58;;;;;;;0.41;100.00;102350.16;5040180;28;20060;-88
2023/01/22 09:36:34;;;;;;;29.30;18.80;;;;;;;0.44;100.00;102344.91;5037743;28;20077;-88
2023/01/22 09:39:01;;;;;;;31.40;19.15;;;;;;;0.46;100.00;102362.00;5038495;28;20048;-88
2023/01/22 09:41:32;;;;;;;29.67;18.80;;;;;;;0.30;100.00;102333.31;5039058;28;20123;-88
2023/01/22 09:44:03;;;;;;;28.95;19.20;;;;;;;0.36;100.00;102341.72;5039785;28;20507;-88
2023/01/22 09:46:36;;;;;;;29.15;19.35;;;;;;;0.41;100.00;102345.84;5026824;28;20056;-88
2023/01/22 09:49:11;;;;;;;28.33;18.40;;;;;;;0.38;100.00;102340.78;5018620;28;20054;-88
2023/01/22 09:51:38;;;;;;;26.00;17.55;;;;;;;0.68;100.00;102375.00;5038012;28;20504;-88
2023/01/22 09:54:07;;;;;;;35.05;19.08;;;;;;;0.60;100.00;102371.81;5050991;28;20049;-88
2023/01/22 09:56:39;;;;;;;30.90;19.05;;;;;;;0.51;100.00;102346.38;5036949;28;20110;-88
2023/01/22 09:59:07;;;;;;;30.83;20.23;;;;;;;0.74;100.00;102379.13;5036520;28;20069;-88
2023/01/22 10:01:37;;;;;;;30.60;20.20;;;;;;;0.77;100.00;102372.13;5031636;28;20045;-88
2023/01/22 10:04:14;;;;;;;29.58;19.35;;;;;;;0.79;100.00;102378.06;5032619;28;20129;-88
2023/01/22 10:06:44;;;;;;;31.55;20.73;;;;;;;0.71;100.00;102349.13;5034977;28;20049;-88
2023/01/22 10:09:15;;;;;;;34.88;21.67;;;;;;;0.81;100.00;102360.00;5035217;28;20080;-89
2023/01/22 10:11:57;;;;;;;30.77;19.02;;;;;;;0.70;100.00;102332.00;5036881;28;20045;-89
2023/01/22 10:14:33;;;;;;;38.17;21.63;;;;;;;0.70;100.00;102341.47;5034838;28;20482;-89
2023/01/22 10:17:03;;;;;;;33.55;21.45;;;;;;;0.78;100.00;102349.78;5035144;28;20283;-88
2023/01/22 10:19:43;;;;;;;30.98;20.60;;;;;;;0.86;100.00;102368.41;5036929;28;20476;-88
2023/01/22 10:22:13;;;;;;;34.88;22.02;;;;;;;0.71;100.00;102333.69;5035881;28;20103;-88
2023/01/22 10:24:40;;;;;;;32.80;21.52;;;;;;;0.87;100.00;102368.34;5036139;28;20053;-88
2023/01/22 10:27:12;;;;;;;33.97;21.58;;;;;;;0.95;100.00;102357.75;5035218;28;20068;-88
2023/01/22 10:29:38;;;;;;;32.83;21.25;;;;;;;1.08;100.00;102364.19;5035776;28;20071;-87
2023/01/22 10:32:23;;;;;;;31.77;21.00;;;;;;;1.14;100.00;102374.28;5036725;28;20053;-88
2023/01/22 10:35:01;;;;;;;33.42;21.25;;;;;;;1.05;100.00;102361.72;5034563;28;20026;-88
2023/01/22 10:37:28;;;;;;;31.50;20.88;;;;;;;1.13;100.00;102369.19;5034772;28;20104;-88
2023/01/22 10:39:58;;;;;;;31.08;20.38;;;;;;;1.19;100.00;102362.09;5035569;28;20587;-89
2023/01/22 10:42:26;;;;;;;29.45;19.92;;;;;;;1.20;100.00;102371.50;5035665;28;20408;-89
2023/01/22 10:45:14;;;;;;;28.58;19.75;;;;;;;1.15;100.00;102364.81;5036651;28;20038;-88
2023/01/22 10:47:42;;;;;;;27.48;19.05;;;;;;;1.11;100.00;102364.09;5040866;28;20044;-88
2023/01/22 10:50:14;;;;;;;29.52;19.83;;;;;;;1.09;100.00;102354.72;5036297;28;20049;-88
2023/01/22 10:52:44;;;;;;;29.45;19.60;;;;;;;0.98;100.00;102353.34;5039229;28;20148;-88
2023/01/22 10:55:22;;;;;;;29.35;19.35;;;;;;;1.09;100.00;102358.13;5036618;28;20085;-88
2023/01/22 10:57:54;;;;;;;28.85;18.42;;;;;;;1.09;100.00;102359.88;5040083;28;20076;-89
2023/01/22 11:00:25;;;;;;;29.52;19.67;;;;;;;1.20;100.00;102356.03;5030578;28;20054;-89
2023/01/22 11:02:53;;;;;;;29.60;18.95;;;;;;;1.19;100.00;102356.94;5034141;28;20049;-89
2023/01/22 11:05:23;;;;;;;31.05;19.67;;;;;;;1.17;100.00;102347.56;5036995;28;20076;-90
2023/01/22 11:07:57;;;;;;;30.15;19.58;;;;;;;1.19;100.00;102346.63;5042029;28;20087;-89
2023/01/22 11:10:37;;;;;;;30.67;20.45;;;;;;;1.28;100.00;102348.88;5047276;28;20116;-92
2023/01/22 11:13:11;;;;;;;30.88;19.30;;;;;;;1.15;100.00;102318.41;5045476;28;20135;-89
2023/01/22 11:15:44;;;;;;;30.15;19.67;;;;;;;1.13;100.00;102312.47;5032563;28;20136;-89
2023/01/22 11:18:18;;;;;;;30.83;19.38;;;;;;;1.36;100.00;102351.19;5040807;28;20053;-89